createdAt,value
2022-09-03T00:01:59.070Z,2.40
2022-09-03T00:04:33.207Z,2.27
2022-09-03T00:07:11.945Z,2.80
2022-09-03T00:09:49.542Z,2.27
2022-09-03T00:12:26.478Z,2.30
2022-09-03T00:15:15.951Z,3.07
2022-09-03T00:17:49.289Z,2.90
2022-09-03T00:20:39.450Z,2.33
2022-09-03T00:23:28.620Z,2.90
2022-09-03T00:26:14.083Z,3.00
2022-09-03T00:29:18.371Z,3.00
2022-09-03T00:31:53.558Z,2.30
2022-09-03T00:34:51.362Z,3.33
2022-09-03T00:37:18.285Z,2.53
2022-09-03T00:39:45.799Z,2.80
2022-09-03T00:42:43.807Z,2.30
2022-09-03T00:45:22.619Z,2.80
2022-09-03T00:48:06.658Z,2.93
2022-09-03T00:51:02.384Z,2.80
2022-09-03T00:53:56.832Z,2.70
2022-09-03T00:56:41.208Z,2.80
2022-09-03T00:59:11.039Z,2.47
2022-09-03T01:02:30.191Z,2.70
2022-09-03T01:05:06.508Z,2.97
2022-09-03T01:07:43.007Z,3.53
2022-09-03T01:10:28.762Z,3.17
2022-09-03T01:13:10.131Z,2.77
2022-09-03T01:16:15.336Z,2.90
2022-09-03T01:18:54.512Z,2.70
2022-09-03T01:21:37.050Z,3.00
2022-09-03T01:24:29.994Z,3.33
2022-09-03T01:27:03.975Z,2.93
2022-09-03T01:30:06.154Z,2.93
2022-09-03T01:32:45.897Z,2.57
2022-09-03T01:35:49.046Z,3.30
2022-09-03T01:38:18.642Z,3.00
2022-09-03T01:41:20.957Z,2.97
2022-09-03T01:44:04.233Z,2.80
2022-09-03T01:46:40.205Z,3.00
2022-09-03T01:49:22.620Z,2.77
2022-09-03T01:52:29.713Z,3.03
2022-09-03T01:55:27.462Z,3.00
2022-09-03T01:58:06.319Z,3.40
2022-09-03T02:00:36.026Z,3.43
2022-09-03T02:03:07.808Z,2.90
2022-09-03T02:05:35.250Z,3.23
2022-09-03T02:08:05.595Z,3.23
2022-09-03T02:10:45.452Z,2.97
2022-09-03T02:13:26.585Z,3.20
2022-09-03T02:15:57.241Z,3.00
2022-09-03T02:18:36.854Z,3.10
2022-09-03T02:21:04.904Z,2.90
2022-09-03T02:23:32.006Z,3.20
2022-09-03T02:26:03.782Z,3.47
2022-09-03T02:28:32.417Z,3.17
2022-09-03T02:30:59.453Z,3.43
2022-09-03T02:33:27.130Z,2.97
2022-09-03T02:35:55.240Z,2.97
2022-09-03T02:38:28.447Z,3.20
2022-09-03T02:40:55.938Z,2.90
2022-09-03T02:43:45.594Z,3.37
2022-09-03T02:46:22.927Z,3.33
2022-09-03T02:48:49.886Z,2.80
2022-09-03T02:51:16.787Z,3.37
2022-09-03T02:53:44.797Z,3.37
2022-09-03T02:56:12.454Z,3.00
2022-09-03T02:58:39.397Z,3.67
2022-09-03T03:01:06.651Z,3.00
2022-09-03T03:03:33.791Z,3.13
2022-09-03T03:06:06.236Z,3.00
2022-09-03T03:08:34.810Z,3.33
2022-09-03T03:11:02.278Z,3.20
2022-09-03T03:13:31.224Z,4.03
2022-09-03T03:16:03.648Z,4.00
2022-09-03T03:18:30.595Z,3.30
2022-09-03T03:20:57.663Z,2.73
2022-09-03T03:23:24.651Z,3.67
2022-09-03T03:25:51.803Z,3.30
2022-09-03T03:28:20.366Z,3.67
2022-09-03T03:30:48.695Z,2.93
2022-09-03T03:33:15.905Z,3.63
2022-09-03T03:35:42.902Z,3.57
2022-09-03T03:38:10.142Z,3.63
2022-09-03T03:40:39.042Z,3.53
2022-09-03T03:43:05.898Z,3.03
2022-09-03T03:45:33.031Z,3.40
2022-09-03T03:48:00.011Z,3.93
2022-09-03T03:50:28.019Z,3.37
2022-09-03T03:52:54.913Z,3.53
2022-09-03T03:55:21.846Z,3.57
2022-09-03T03:57:48.695Z,3.47
2022-09-03T04:00:16.078Z,3.87
2022-09-03T04:02:43.209Z,3.77
2022-09-03T04:05:10.533Z,3.33
2022-09-03T04:07:38.588Z,3.70
2022-09-03T04:10:06.120Z,3.33
2022-09-03T04:12:33.357Z,3.70
2022-09-03T04:15:00.229Z,3.77
2022-09-03T04:17:28.534Z,3.70
2022-09-03T04:19:55.375Z,3.93
2022-09-03T04:22:22.374Z,2.90
2022-09-03T04:24:49.267Z,3.93
2022-09-03T04:27:16.127Z,3.87
2022-09-03T04:29:42.994Z,4.10
2022-09-03T04:32:28.628Z,3.30
2022-09-03T04:34:55.630Z,3.90
2022-09-03T04:37:22.523Z,3.27
2022-09-03T04:39:49.509Z,3.57
2022-09-03T04:42:16.395Z,3.77
2022-09-03T04:44:43.266Z,3.27
2022-09-03T04:47:10.168Z,3.53
2022-09-03T04:49:37.102Z,3.40
2022-09-03T04:52:04.135Z,4.67
2022-09-03T04:54:31.584Z,3.60
2022-09-03T04:56:58.498Z,3.70
2022-09-03T04:59:25.433Z,3.37
2022-09-03T05:01:52.878Z,3.13
2022-09-03T05:04:19.938Z,4.20
2022-09-03T05:06:46.850Z,3.67
2022-09-03T05:09:13.867Z,4.10
2022-09-03T05:11:40.851Z,4.20
2022-09-03T05:14:11.812Z,3.97
2022-09-03T05:16:39.182Z,3.63
2022-09-03T05:19:06.186Z,3.77
2022-09-03T05:21:33.347Z,3.50
2022-09-03T05:24:01.246Z,3.70
2022-09-03T05:26:31.389Z,3.20
2022-09-03T05:29:00.762Z,3.63
2022-09-03T05:31:31.627Z,3.40
2022-09-03T05:34:01.569Z,3.73
2022-09-03T05:36:34.832Z,3.30
2022-09-03T05:39:02.065Z,3.33
2022-09-03T05:41:29.825Z,4.00
2022-09-03T05:43:59.443Z,3.83
2022-09-03T05:46:34.167Z,3.93
2022-09-03T05:49:02.666Z,4.17
2022-09-03T05:51:30.526Z,3.80
2022-09-03T05:53:58.444Z,4.80
2022-09-03T05:56:27.365Z,3.80
2022-09-03T05:58:56.845Z,4.20
2022-09-03T06:01:26.174Z,4.90
2022-09-03T06:03:57.828Z,4.37
2022-09-03T06:06:26.311Z,3.93
2022-09-03T06:09:02.686Z,3.23
2022-09-03T06:11:31.113Z,3.23
2022-09-03T06:14:01.462Z,3.47
2022-09-03T06:16:30.778Z,3.20
2022-09-03T06:19:02.382Z,3.20
2022-09-03T06:21:30.123Z,3.07
2022-09-03T06:23:59.677Z,2.37
2022-09-03T06:26:29.242Z,3.27
2022-09-03T06:28:57.441Z,2.67
2022-09-03T06:31:24.942Z,2.67
2022-09-03T06:33:55.106Z,2.60
2022-09-03T06:36:24.103Z,2.50
2022-09-03T06:38:56.014Z,2.63
2022-09-03T06:41:25.375Z,2.30
2022-09-03T06:43:54.763Z,2.50
2022-09-03T06:46:24.036Z,2.40
2022-09-03T06:48:51.789Z,2.87
2022-09-03T06:51:22.150Z,3.10
2022-09-03T06:53:54.605Z,2.67
2022-09-03T06:56:26.499Z,3.30
2022-09-03T06:58:57.204Z,3.07
2022-09-03T07:01:26.879Z,3.20
2022-09-03T07:03:56.552Z,3.20
2022-09-03T07:06:25.929Z,3.40
2022-09-03T07:08:53.349Z,3.33
2022-09-03T07:11:23.517Z,3.70
2022-09-03T07:13:52.154Z,3.03
2022-09-03T07:16:21.806Z,2.40
2022-09-03T07:18:49.769Z,2.60
2022-09-03T07:21:21.679Z,3.00
2022-09-03T07:23:50.074Z,2.87
2022-09-03T07:26:20.017Z,2.97
2022-09-03T07:28:48.915Z,2.60
2022-09-03T07:31:25.726Z,2.80
2022-09-03T07:33:56.853Z,3.37
2022-09-03T07:36:26.235Z,2.53
2022-09-03T07:38:56.868Z,2.60
2022-09-03T07:41:28.797Z,2.90
2022-09-03T07:43:57.220Z,2.30
2022-09-03T07:46:27.361Z,2.30
2022-09-03T07:48:56.953Z,2.43
2022-09-03T07:51:26.669Z,2.77
2022-09-03T07:53:58.199Z,2.93
2022-09-03T07:56:27.055Z,1.90
2022-09-03T07:58:57.099Z,2.17
2022-09-03T08:01:26.270Z,2.33
2022-09-03T08:03:54.249Z,2.50
2022-09-03T08:06:26.370Z,2.57
2022-09-03T08:09:04.910Z,2.80
2022-09-03T08:11:39.632Z,3.23
2022-09-03T08:14:09.090Z,2.97
2022-09-03T08:16:39.683Z,2.57
2022-09-03T08:19:07.672Z,2.43
2022-09-03T08:21:35.336Z,2.20
2022-09-03T08:24:03.031Z,2.30
2022-09-03T08:26:35.230Z,2.40
2022-09-03T08:29:02.893Z,2.80
2022-09-03T08:31:31.000Z,2.20
2022-09-03T08:33:59.395Z,2.63
2022-09-03T08:36:32.723Z,2.10
2022-09-03T08:39:04.460Z,2.60
2022-09-03T08:41:46.027Z,2.23
2022-09-03T08:44:19.955Z,2.80
2022-09-03T08:46:52.172Z,2.27
2022-09-03T08:49:46.649Z,3.30
2022-09-03T08:52:26.361Z,2.87
2022-09-03T08:54:59.654Z,2.50
2022-09-03T08:57:26.787Z,2.93
2022-09-03T08:59:56.543Z,2.63
2022-09-03T09:02:37.618Z,2.40
2022-09-03T09:05:23.610Z,2.60
2022-09-03T09:08:23.043Z,1.83
2022-09-03T09:11:05.732Z,2.40
2022-09-03T09:13:48.762Z,2.50
2022-09-03T09:16:30.999Z,2.07
2022-09-03T09:19:39.194Z,1.40
2022-09-03T09:22:11.344Z,1.80
2022-09-03T09:24:45.145Z,1.90
2022-09-03T09:27:17.311Z,2.40
2022-09-03T09:29:48.935Z,2.03
2022-09-03T09:32:18.949Z,2.50
2022-09-03T09:34:51.990Z,1.97
2022-09-03T09:37:19.954Z,1.87
2022-09-03T09:39:59.437Z,1.90
2022-09-03T09:42:27.707Z,2.00
2022-09-03T09:44:54.559Z,2.07
2022-09-03T09:47:31.721Z,1.90
2022-09-03T09:50:01.138Z,1.70
2022-09-03T09:52:31.616Z,1.80
2022-09-03T09:55:17.823Z,1.97
2022-09-03T09:57:45.257Z,2.13
2022-09-03T10:00:16.105Z,2.17
2022-09-03T10:02:51.532Z,2.00
2022-09-03T10:05:36.848Z,2.60
2022-09-03T10:08:19.762Z,2.70
2022-09-03T10:10:49.824Z,2.87
2022-09-03T10:13:26.759Z,2.10
2022-09-03T10:15:56.598Z,2.90
2022-09-03T10:18:37.167Z,1.60
2022-09-03T10:21:23.936Z,1.87
2022-09-03T10:24:25.813Z,2.23
2022-09-03T10:26:52.689Z,2.03
2022-09-03T10:29:22.750Z,2.33
2022-09-03T10:32:25.561Z,2.50
2022-09-03T10:35:19.354Z,2.17
2022-09-03T10:38:07.314Z,2.20
2022-09-03T10:40:43.276Z,1.70
2022-09-03T10:43:41.853Z,2.00
2022-09-03T10:46:23.807Z,2.30
2022-09-03T10:49:14.177Z,1.80
2022-09-03T10:51:56.155Z,2.00
2022-09-03T10:55:00.576Z,1.70
2022-09-03T10:57:33.286Z,2.10
2022-09-03T11:00:14.784Z,1.80
2022-09-03T11:03:21.093Z,2.77
2022-09-03T11:06:10.970Z,1.33
2022-09-03T11:08:47.358Z,2.23
2022-09-03T11:11:21.813Z,2.00
2022-09-03T11:14:03.707Z,1.63
2022-09-03T11:16:50.274Z,2.03
2022-09-03T11:19:20.186Z,1.90
2022-09-03T11:21:49.817Z,2.50
2022-09-03T11:24:22.966Z,1.70
2022-09-03T11:27:10.871Z,1.80
2022-09-03T11:29:42.141Z,1.70
2022-09-03T11:32:31.214Z,1.80
2022-09-03T11:34:58.080Z,1.90
2022-09-03T11:37:27.531Z,1.97
2022-09-03T11:40:08.057Z,1.60
2022-09-03T11:42:41.517Z,1.70
2022-09-03T11:45:30.310Z,1.57
2022-09-03T11:47:57.525Z,1.87
2022-09-03T11:50:28.991Z,1.67
2022-09-03T11:53:16.570Z,2.00
2022-09-03T11:55:55.232Z,1.50
2022-09-03T11:58:28.598Z,1.83
2022-09-03T12:00:56.390Z,1.87
2022-09-03T12:03:28.620Z,1.73
2022-09-03T12:06:06.972Z,2.03
2022-09-03T12:08:47.216Z,2.20
2022-09-03T12:11:44.292Z,1.77
2022-09-03T12:14:29.050Z,2.00
2022-09-03T12:17:17.432Z,1.80
2022-09-03T12:19:52.895Z,1.57
2022-09-03T12:22:21.715Z,1.70
2022-09-03T12:24:50.866Z,1.70
2022-09-03T12:27:24.718Z,1.97
2022-09-03T12:30:02.907Z,1.83
2022-09-03T12:32:37.196Z,1.87
2022-09-03T12:38:11.953Z,1.67
2022-09-03T12:43:39.471Z,1.67
2022-09-03T12:46:17.747Z,2.20
2022-09-03T12:51:52.203Z,1.57
2022-09-03T12:54:21.201Z,2.13
2022-09-03T12:56:56.490Z,1.90
2022-09-03T12:59:26.661Z,1.80
2022-09-03T13:01:58.770Z,1.70
2022-09-03T13:04:30.230Z,1.43
2022-09-03T13:07:03.734Z,1.77
2022-09-03T13:09:33.326Z,1.80
2022-09-03T13:12:01.865Z,2.20
2022-09-03T13:14:28.743Z,1.73
2022-09-03T13:17:17.979Z,1.70
2022-09-03T13:19:44.846Z,1.87
2022-09-03T13:22:17.161Z,1.80
2022-09-03T13:25:09.865Z,2.17
2022-09-03T13:28:07.591Z,2.30
2022-09-03T13:31:16.225Z,1.70
2022-09-03T13:33:52.700Z,1.80
2022-09-03T13:36:26.016Z,1.80
2022-09-03T13:38:59.092Z,1.73
2022-09-03T13:41:42.118Z,2.20
2022-09-03T13:44:37.956Z,2.40
2022-09-03T13:47:23.565Z,1.50
2022-09-03T13:50:21.205Z,2.10
2022-09-03T13:53:21.610Z,1.80
2022-09-03T13:56:05.297Z,1.93
2022-09-03T13:58:46.703Z,2.13
2022-09-03T14:01:51.770Z,1.97
2022-09-03T14:04:28.127Z,2.10
2022-09-03T14:06:59.330Z,2.07
2022-09-03T14:09:52.193Z,2.30
2022-09-03T14:12:29.079Z,1.80
2022-09-03T14:15:02.681Z,1.90
2022-09-03T14:17:41.596Z,1.90
2022-09-03T14:20:16.795Z,2.17
2022-09-03T14:23:17.614Z,2.07
2022-09-03T14:25:54.187Z,1.90
2022-09-03T14:28:31.910Z,2.00
2022-09-03T14:31:07.647Z,2.10
2022-09-03T14:34:14.499Z,2.13
2022-09-03T14:36:45.975Z,1.77
2022-09-03T14:39:28.367Z,1.90
2022-09-03T14:42:21.204Z,1.50
2022-09-03T14:45:21.198Z,1.87
2022-09-03T14:47:51.053Z,2.00
2022-09-03T14:50:36.374Z,2.20
2022-09-03T14:53:12.334Z,2.00
2022-09-03T14:56:05.636Z,2.57
2022-09-03T14:58:47.455Z,2.20
2022-09-03T15:01:18.929Z,2.20
2022-09-03T15:03:57.824Z,2.13
2022-09-03T15:06:33.638Z,2.03
2022-09-03T15:09:31.074Z,1.93
2022-09-03T15:12:18.383Z,2.00
2022-09-03T15:14:58.948Z,2.00
2022-09-03T15:17:25.750Z,2.03
2022-09-03T15:19:52.611Z,2.03
2022-09-03T15:22:22.247Z,2.10
2022-09-03T15:25:05.095Z,2.20
2022-09-03T15:27:59.970Z,2.10
2022-09-03T15:30:41.175Z,1.70
2022-09-03T15:33:13.781Z,1.70
2022-09-03T15:35:52.658Z,2.23
2022-09-03T15:38:52.918Z,2.50
2022-09-03T15:41:35.899Z,2.30
2022-09-03T15:44:09.041Z,2.03
2022-09-03T15:46:45.147Z,1.90
2022-09-03T15:49:35.280Z,1.97
2022-09-03T15:52:24.861Z,1.90
2022-09-03T15:55:30.301Z,2.60
2022-09-03T15:58:10.478Z,1.97
2022-09-03T16:00:53.204Z,2.20
2022-09-03T16:03:35.193Z,1.90
2022-09-03T16:06:06.594Z,1.90
2022-09-03T16:08:52.555Z,2.30
2022-09-03T16:11:48.795Z,2.10
2022-09-03T16:14:30.881Z,2.23
2022-09-03T16:17:22.776Z,2.50
2022-09-03T16:19:57.052Z,2.00
2022-09-03T16:22:33.058Z,2.10
2022-09-03T16:25:03.215Z,2.00
2022-09-03T16:27:40.446Z,2.07
2022-09-03T16:30:12.213Z,2.60
2022-09-03T16:33:12.311Z,2.10
2022-09-03T16:35:45.204Z,1.87
2022-09-03T16:38:17.264Z,2.07
2022-09-03T16:41:19.339Z,2.40
2022-09-03T16:44:17.739Z,2.17
2022-09-03T16:47:09.161Z,2.17
2022-09-03T16:49:38.987Z,2.07
2022-09-03T16:52:54.158Z,2.50
2022-09-03T16:55:26.195Z,2.00
2022-09-03T16:58:13.034Z,2.20
2022-09-03T17:01:07.636Z,2.20
2022-09-03T17:04:25.651Z,1.80
2022-09-03T17:07:08.771Z,2.47
2022-09-03T17:10:03.718Z,2.70
2022-09-03T17:12:39.507Z,2.07
2022-09-03T17:15:36.103Z,2.27
2022-09-03T17:18:15.951Z,1.70
2022-09-03T17:21:05.184Z,2.30
2022-09-03T17:23:46.851Z,2.30
2022-09-03T17:26:16.829Z,2.37
2022-09-03T17:29:08.513Z,2.10
2022-09-03T17:31:51.740Z,2.20
2022-09-03T17:34:30.178Z,2.40
2022-09-03T17:37:11.500Z,2.27
2022-09-03T17:40:15.230Z,2.40
2022-09-03T17:43:07.970Z,2.00
2022-09-03T17:45:56.330Z,2.23
2022-09-03T17:48:51.491Z,2.43
2022-09-03T17:51:47.562Z,1.97
2022-09-03T17:54:32.309Z,2.40
2022-09-03T17:57:30.758Z,2.40
2022-09-03T18:00:10.533Z,2.60
2022-09-03T18:02:58.518Z,2.00
2022-09-03T18:05:30.739Z,2.20
2022-09-03T18:08:20.143Z,2.33
2022-09-03T18:10:58.839Z,2.30
2022-09-03T18:13:43.608Z,1.93
2022-09-03T18:16:16.821Z,2.40
2022-09-03T18:18:52.562Z,2.40
2022-09-03T18:21:43.743Z,2.07
2022-09-03T18:24:50.645Z,2.60
2022-09-03T18:27:57.563Z,2.70
2022-09-03T18:30:43.851Z,2.33
2022-09-03T18:33:31.972Z,2.97
2022-09-03T18:36:18.245Z,1.80
2022-09-03T18:39:03.610Z,2.83
2022-09-03T18:42:17.213Z,2.97
2022-09-03T18:45:56.302Z,2.07
2022-09-03T18:49:00.611Z,2.50
2022-09-03T18:52:04.790Z,2.20
2022-09-03T18:55:13.982Z,2.67
2022-09-03T18:58:14.848Z,2.03
2022-09-03T19:01:18.079Z,2.87
2022-09-03T19:04:35.271Z,2.27
2022-09-03T19:08:00.136Z,2.10
2022-09-03T19:11:10.722Z,2.50
2022-09-03T19:13:58.550Z,2.13
2022-09-03T19:17:13.205Z,2.30
2022-09-03T19:20:36.595Z,2.27
2022-09-03T19:23:22.755Z,2.40
2022-09-03T19:26:10.542Z,2.30
2022-09-03T19:29:02.852Z,2.50
2022-09-03T19:31:57.259Z,2.07
2022-09-03T19:34:51.442Z,2.30
2022-09-03T19:37:39.761Z,2.77
2022-09-03T19:40:49.986Z,2.60
2022-09-03T19:43:47.448Z,2.90
2022-09-03T19:46:56.478Z,2.87
2022-09-03T19:49:51.506Z,2.93
2022-09-03T19:52:55.603Z,2.97
2022-09-03T19:55:45.509Z,3.60
2022-09-03T19:58:43.150Z,2.80
2022-09-03T20:01:30.510Z,2.93
2022-09-03T20:04:22.155Z,2.67
2022-09-03T20:07:07.627Z,3.03
2022-09-03T20:09:59.854Z,3.07
2022-09-03T20:12:31.172Z,2.77
2022-09-03T20:14:58.058Z,2.90
2022-09-03T20:18:03.336Z,3.10
2022-09-03T20:21:06.814Z,3.37
2022-09-03T20:23:45.059Z,3.07
2022-09-03T20:26:32.155Z,3.27
2022-09-03T20:29:17.497Z,3.53
2022-09-03T20:31:59.364Z,2.70
2022-09-03T20:34:32.890Z,3.57
2022-09-03T20:37:09.932Z,3.00
2022-09-03T20:39:45.994Z,2.70
2022-09-03T20:42:31.709Z,2.20
2022-09-03T20:45:44.183Z,2.30
2022-09-03T20:48:36.496Z,2.10
2022-09-03T20:51:22.740Z,2.60
2022-09-03T20:54:08.877Z,2.97
2022-09-03T20:57:14.531Z,2.57
2022-09-03T21:00:02.818Z,2.83
2022-09-03T21:02:48.097Z,3.10
2022-09-03T21:05:29.731Z,3.23
2022-09-03T21:08:36.115Z,2.53
2022-09-03T21:11:10.394Z,3.20
2022-09-03T21:13:59.942Z,3.17
2022-09-03T21:16:42.983Z,3.40
2022-09-03T21:19:36.251Z,2.77
2022-09-03T21:22:18.036Z,3.10
2022-09-03T21:24:49.177Z,3.20
2022-09-03T21:27:24.255Z,3.30
2022-09-03T21:30:01.139Z,3.37
2022-09-03T21:33:02.664Z,3.30
2022-09-03T21:35:47.511Z,3.47
2022-09-03T21:38:25.680Z,3.27
2022-09-03T21:41:00.859Z,3.37
2022-09-03T21:43:52.549Z,3.50
2022-09-03T21:46:24.122Z,3.50
2022-09-03T21:49:13.191Z,2.93
2022-09-03T21:52:00.795Z,3.40
2022-09-03T21:54:35.962Z,3.40
2022-09-03T21:57:56.636Z,4.03
2022-09-03T22:00:32.811Z,3.47
2022-09-03T22:03:00.798Z,3.20
2022-09-03T22:05:54.251Z,3.07
2022-09-03T22:08:39.132Z,3.57
2022-09-03T22:11:14.115Z,3.50
2022-09-03T22:13:49.927Z,3.40
2022-09-03T22:16:39.148Z,3.20
2022-09-03T22:19:07.865Z,3.50
2022-09-03T22:21:59.872Z,3.60
2022-09-03T22:24:36.450Z,2.77
2022-09-03T22:27:26.582Z,2.90
2022-09-03T22:30:03.382Z,3.03
2022-09-03T22:32:45.664Z,3.60
2022-09-03T22:35:50.825Z,3.40
2022-09-03T22:38:48.391Z,2.80
2022-09-03T22:41:56.259Z,2.50
2022-09-03T22:44:51.190Z,2.50
2022-09-03T22:47:26.967Z,2.80
2022-09-03T22:50:12.022Z,3.17
2022-09-03T22:52:46.371Z,3.40
2022-09-03T22:55:23.193Z,3.20
2022-09-03T22:58:10.287Z,3.07
2022-09-03T23:00:58.083Z,3.90
2022-09-03T23:03:33.919Z,2.87
2022-09-03T23:06:14.419Z,3.37
2022-09-03T23:08:52.858Z,3.00
2022-09-03T23:11:27.699Z,3.87
2022-09-03T23:14:09.855Z,3.23
2022-09-03T23:16:46.636Z,2.50
2022-09-03T23:19:43.126Z,2.93
2022-09-03T23:22:13.312Z,2.67
2022-09-03T23:25:10.707Z,3.40
2022-09-03T23:27:43.249Z,2.67
2022-09-03T23:30:10.661Z,3.00
2022-09-03T23:32:37.630Z,3.47
2022-09-03T23:35:13.235Z,3.00
2022-09-03T23:37:53.426Z,2.90
2022-09-03T23:40:38.766Z,3.10
2022-09-03T23:43:23.931Z,3.27
2022-09-03T23:46:10.022Z,3.37
2022-09-03T23:49:06.944Z,2.87
2022-09-03T23:51:48.687Z,3.20
2022-09-03T23:54:39.397Z,3.27
2022-09-03T23:57:33.546Z,2.87
